Lanesville, NY

3:50 PM EDT on June 30, 2015 (GMT -0400)
KNYHAINE2 | | Change Station
CLOSE
Current Station
Personal Weather Station
Location: Haines Falls, NY
Elevation: 2010 ft
Nearby Weather Stations

Elev 2010 ft 42.20 °N, 74.10 °W | Updated 59 seconds ago

Overcast
Overcast
62.6 °F
Feels Like 62.6 °F
N
0.0
Wind Variable Wind from SE
Gusts 0.0 mph

Today
High -- | Low -- °F
--% Chance of Precip.
Yesterday
High -- | Low -- °F
Precip. -- in
5:23 AM 8:37 PM
Waxing Gibbous, 98% visible
Pressure 29.94 in
Visibility 10.0 miles
Clouds Scattered Clouds 3300 ft
Mostly Cloudy 4400 ft
Overcast 7500 ft
Dew Point 60 °F
Humidity 93%
Rainfall in
Snow Depth Not available.
UV 3 out of 12
Pollen 3.20 out of 12
Air Quality Not available.
Flu Activity Sporadic
METAR KMSV 301935Z AUTO 09006KT 10SM SCT033 BKN044 OVC075 18/17 A2994 RMK AO1 LTG DSNT S

More Conditions Fewer Conditions

Pressure 29.94 in
Visibility 10.0 miles
Clouds Scattered Clouds 3300 ft
Mostly Cloudy 4400 ft
Overcast 7500 ft
Dew Point 60 °F
Humidity 93%
Rainfall in
Snow Depth Not available.
UV 3 out of 12
Pollen 3.20 out of 12
Air Quality Not available.
Flu Activity Sporadic
METAR KMSV 301935Z AUTO 09006KT 10SM SCT033 BKN044 OVC075 18/17 A2994 RMK AO1 LTG DSNT S

More Conditions Fewer Conditions

10-Day Weather Forecast

×

Almanac

Astronomy

Jun. 30, 2015 Rise Set
Actual Time
Civil Twilight
Nautical Twilight
Astronomical Twilight
Moon
Length of Visible Light
Length of Day
Tomorrow will be .
, % of the Moon is Illuminated

Today's Extremes

State Highs State Lows

Community

WunderPhotos

Upload Photos

1,834,067 photos uploaded!

WunderBlogs® & News

Nearby

Air Quality

  Air Quality AQ Index Pollutant
Not available.

Snow Depth

Station Depth Elevation

Earthquake Activity

City Distance Mag. Time & Date
Minimum magnitude displayed is 2.5.

Coastal Water Temperatures

Place Temperature

Stations

Nearby Weather Stations

Station Location Temp. Windchill Dew Point Humidity Wind Precip. Elev Updated Type